Time;durP1;ratioP1;P1;durP2;ratioP2;P2;SDS_P1;SDS_P2;PMS_P1;PMS_P2;Temp;Humidity;BMP_temperature;BMP_pressure;BME280_temperature;BME280_humidity;BME280_pressure;Samples;Min_cycle;Max_cycle;Signal;HPM_P1;HPM_P2
2022/06/04 00:01:52;;;;;;;;;;;13.00;99.90;;;;;;4862226;29;19932;-81
2022/06/04 00:04:18;;;;;;;;;;;13.00;99.90;;;;;;4847055;29;19935;-81
2022/06/04 00:06:43;;;;;;;;;;;13.00;99.90;;;;;;4846461;29;19924;-81
2022/06/04 00:09:10;;;;;;;;;;;12.90;99.90;;;;;;4863471;29;19992;-81
2022/06/04 00:17:08;;;;;;;;;;;12.80;99.90;;;;;;4862788;29;19928;-81
2022/06/04 00:19:34;;;;;;;;;;;12.80;99.90;;;;;;4862090;29;19928;-81
2022/06/04 00:22:00;;;;;;;;;;;12.80;99.90;;;;;;4862692;29;20003;-81
2022/06/04 00:24:26;;;;;;;;;;;12.80;99.90;;;;;;4861642;29;19928;-81
2022/06/04 00:26:52;;;;;;;;;;;12.80;99.90;;;;;;4861730;29;19928;-81
2022/06/04 00:29:18;;;;;;;;;;;12.70;99.90;;;;;;4862530;29;20000;-81
2022/06/04 00:31:43;;;;;;;;;;;12.70;99.90;;;;;;4861740;29;20015;-81
2022/06/04 00:34:09;;;;;;;;;;;12.70;99.90;;;;;;4862659;29;19951;-81
2022/06/04 00:36:35;;;;;;;;;;;12.70;99.90;;;;;;4861660;29;19929;-81
2022/06/04 00:39:00;;;;;;;;;;;12.70;99.90;;;;;;4861599;29;20014;-81
2022/06/04 00:41:35;;;;;;;;;;;12.60;99.90;;;;;;4846729;29;19933;-81
2022/06/04 00:44:09;;;;;;;;;;;12.60;99.90;;;;;;4862243;29;20337;-81
2022/06/04 00:46:41;;;;;;;;;;;12.60;99.90;;;;;;4861321;29;20019;-81
2022/06/04 00:49:18;;;;;;;;;;;12.50;99.90;;;;;;4861065;29;19932;-81
2022/06/04 00:51:46;;;;;;;;;;;12.50;99.90;;;;;;4846402;29;19934;-81
2022/06/04 00:54:12;;;;;;;;;;;12.50;99.90;;;;;;4862704;29;19932;-81
2022/06/04 00:56:37;;;;;;;;;;;12.50;99.90;;;;;;4845941;29;20281;-81
2022/06/04 00:59:24;;;;;;;;;;;12.50;99.90;;;;;;4861134;29;19937;-81
2022/06/04 01:02:02;;;;;;;;;;;12.50;99.90;;;;;;4861439;29;19928;-81
2022/06/04 01:04:48;;;;;;;;;;;12.50;99.90;;;;;;4860754;29;19928;-80
2022/06/04 01:07:16;;;;;;;;;;;12.50;99.90;;;;;;4862733;29;19935;-81
2022/06/04 01:09:50;;;;;;;;;;;12.40;99.90;;;;;;4861035;29;19928;-81
2022/06/04 01:12:19;;;;;;;;;;;12.40;99.90;;;;;;4861430;29;20036;-81
2022/06/04 01:14:52;;;;;;;;;;;12.50;99.90;;;;;;4860656;29;19928;-81
2022/06/04 01:17:21;;;;;;;;;;;12.40;99.90;;;;;;4845361;29;19955;-81
2022/06/04 01:20:02;;;;;;;;;;;12.40;99.90;;;;;;4861477;29;19935;-81
2022/06/04 01:22:57;;;;;;;;;;;12.40;99.90;;;;;;4861223;29;20044;-81
2022/06/04 01:25:32;;;;;;;;;;;12.30;99.90;;;;;;4848580;29;20362;-81
2022/06/04 01:28:00;;;;;;;;;;;12.30;99.90;;;;;;4860486;29;20025;-81
2022/06/04 01:30:29;;;;;;;;;;;12.30;99.90;;;;;;4860569;29;20388;-81
2022/06/04 01:32:56;;;;;;;;;;;12.20;99.90;;;;;;4860926;29;19996;-81
2022/06/04 01:35:25;;;;;;;;;;;12.20;99.90;;;;;;4861651;29;19932;-81
2022/06/04 01:38:04;;;;;;;;;;;12.20;99.90;;;;;;4861369;29;20407;-81
2022/06/04 01:43:18;;;;;;;;;;;12.10;99.90;;;;;;4860941;29;20384;-81
2022/06/04 01:45:44;;;;;;;;;;;12.10;99.90;;;;;;4860236;29;20072;-81
2022/06/04 01:48:11;;;;;;;;;;;12.10;99.90;;;;;;4860442;29;19936;-81
2022/06/04 01:50:40;;;;;;;;;;;12.10;99.90;;;;;;4861063;29;19935;-81
2022/06/04 01:53:07;;;;;;;;;;;12.10;99.90;;;;;;4860378;29;19928;-81
2022/06/04 01:55:42;;;;;;;;;;;12.10;99.90;;;;;;4860540;29;19932;-81
2022/06/04 01:58:16;;;;;;;;;;;12.10;99.90;;;;;;4860330;29;19936;-81
2022/06/04 02:00:44;;;;;;;;;;;12.10;99.90;;;;;;4860403;29;20428;-82
2022/06/04 02:03:13;;;;;;;;;;;12.00;99.90;;;;;;4860269;29;19978;-82
2022/06/04 02:05:44;;;;;;;;;;;12.00;99.90;;;;;;4859854;29;19928;-81
2022/06/04 02:08:12;;;;;;;;;;;11.90;99.90;;;;;;4862014;29;19932;-81
2022/06/04 02:10:40;;;;;;;;;;;12.00;99.90;;;;;;4860191;29;20320;-81
2022/06/04 02:13:08;;;;;;;;;;;11.90;99.90;;;;;;4860263;29;19979;-81
2022/06/04 02:15:49;;;;;;;;;;;12.00;99.90;;;;;;4861187;29;19924;-81
2022/06/04 02:18:15;;;;;;;;;;;12.00;99.90;;;;;;4860146;29;20015;-81
2022/06/04 02:20:41;;;;;;;;;;;12.00;99.90;;;;;;4860372;29;20027;-81
2022/06/04 02:23:06;;;;;;;;;;;12.10;99.90;;;;;;4860377;29;19935;-81
2022/06/04 02:25:32;;;;;;;;;;;12.10;99.90;;;;;;4859892;29;20023;-81
2022/06/04 02:27:58;;;;;;;;;;;12.20;99.90;;;;;;4844811;29;19928;-81
2022/06/04 02:30:27;;;;;;;;;;;12.20;99.90;;;;;;4859912;29;20030;-81
2022/06/04 02:33:00;;;;;;;;;;;12.20;99.90;;;;;;4860734;29;19932;-81
2022/06/04 02:35:28;;;;;;;;;;;12.20;99.90;;;;;;4859745;29;19948;-81
2022/06/04 02:38:12;;;;;;;;;;;12.20;99.90;;;;;;4861928;29;19928;-81
2022/06/04 02:40:44;;;;;;;;;;;12.10;99.90;;;;;;4863862;29;20027;-81
2022/06/04 02:43:18;;;;;;;;;;;12.20;99.90;;;;;;4863445;29;19997;-80
2022/06/04 02:45:49;;;;;;;;;;;12.20;99.90;;;;;;4863498;29;19936;-81
2022/06/04 02:48:18;;;;;;;;;;;12.10;99.90;;;;;;4863869;29;20023;-81
2022/06/04 02:50:47;;;;;;;;;;;12.10;99.90;;;;;;4863315;29;19928;-80
2022/06/04 02:53:13;;;;;;;;;;;12.10;99.90;;;;;;4865063;29;19935;-81
2022/06/04 02:55:47;;;;;;;;;;;12.10;99.90;;;;;;4863675;29;20432;-81
2022/06/04 02:58:14;;;;;;;;;;;12.00;99.90;;;;;;4863056;29;19936;-81
2022/06/04 03:00:41;;;;;;;;;;;12.00;99.90;;;;;;4847986;29;20250;-80
2022/06/04 03:03:09;;;;;;;;;;;11.90;99.90;;;;;;4864221;29;19924;-81
2022/06/04 03:05:35;;;;;;;;;;;11.90;99.90;;;;;;4862568;29;20342;-81
2022/06/04 03:08:02;;;;;;;;;;;11.80;99.90;;;;;;4848474;29;20026;-81
2022/06/04 03:10:30;;;;;;;;;;;11.80;99.90;;;;;;4862868;29;19935;-81
2022/06/04 03:12:56;;;;;;;;;;;11.80;99.90;;;;;;4863107;29;20265;-81
2022/06/04 03:15:21;;;;;;;;;;;11.70;99.90;;;;;;4864271;29;19928;-81
2022/06/04 03:17:47;;;;;;;;;;;11.70;99.90;;;;;;4862950;29;20306;-81
2022/06/04 03:20:14;;;;;;;;;;;11.70;99.90;;;;;;4864394;29;19980;-81
2022/06/04 03:22:40;;;;;;;;;;;11.70;99.90;;;;;;4862948;29;20385;-81
2022/06/04 03:25:05;;;;;;;;;;;11.70;99.90;;;;;;4847419;29;19931;-81
2022/06/04 03:27:31;;;;;;;;;;;11.60;99.90;;;;;;4863910;29;19928;-81
2022/06/04 03:29:57;;;;;;;;;;;11.60;99.90;;;;;;4862835;29;19935;-81
2022/06/04 03:32:22;;;;;;;;;;;11.60;99.90;;;;;;4863179;29;20426;-80
2022/06/04 03:34:48;;;;;;;;;;;11.60;99.90;;;;;;4862376;29;20331;-80
2022/06/04 03:37:13;;;;;;;;;;;11.60;99.90;;;;;;4862730;29;19931;-81
2022/06/04 03:39:39;;;;;;;;;;;11.60;99.90;;;;;;4862410;29;19928;-81
2022/06/04 03:42:06;;;;;;;;;;;11.50;99.90;;;;;;4847266;29;19924;-81
2022/06/04 03:44:31;;;;;;;;;;;11.60;99.90;;;;;;4847023;29;20366;-81
2022/06/04 03:46:57;;;;;;;;;;;11.60;99.90;;;;;;4862540;29;19988;-81
2022/06/04 03:49:22;;;;;;;;;;;11.50;99.90;;;;;;4863435;29;19932;-81
2022/06/04 03:51:48;;;;;;;;;;;11.60;99.90;;;;;;4863980;29;19932;-80
2022/06/04 03:54:14;;;;;;;;;;;11.60;99.90;;;;;;4847777;29;19928;-81
2022/06/04 03:56:40;;;;;;;;;;;11.60;99.90;;;;;;4863790;29;19928;-81
2022/06/04 03:59:05;;;;;;;;;;;11.60;99.90;;;;;;4862367;29;19935;-81
2022/06/04 04:01:31;;;;;;;;;;;11.60;99.90;;;;;;4847601;29;20027;-81
2022/06/04 04:04:00;;;;;;;;;;;11.60;99.90;;;;;;4846539;29;20389;-81
2022/06/04 04:06:30;;;;;;;;;;;11.60;99.90;;;;;;4846854;29;19935;-81
2022/06/04 04:08:56;;;;;;;;;;;11.70;99.90;;;;;;4862358;29;19928;-81
2022/06/04 04:11:25;;;;;;;;;;;11.70;99.90;;;;;;4863572;29;20421;-80
2022/06/04 04:13:51;;;;;;;;;;;11.80;99.90;;;;;;4861957;29;19935;-80
2022/06/04 04:16:17;;;;;;;;;;;11.80;99.90;;;;;;4861861;29;20020;-81
2022/06/04 04:18:43;;;;;;;;;;;11.90;99.90;;;;;;4846577;29;20003;-81
2022/06/04 04:21:11;;;;;;;;;;;12.00;99.90;;;;;;4862671;29;20342;-81
2022/06/04 04:23:36;;;;;;;;;;;12.10;99.90;;;;;;4861806;29;19936;-81
2022/06/04 04:26:02;;;;;;;;;;;12.10;99.90;;;;;;4846535;29;19928;-81
2022/06/04 04:28:28;;;;;;;;;;;12.20;99.90;;;;;;4862568;29;19928;-81
2022/06/04 04:30:54;;;;;;;;;;;12.20;99.90;;;;;;4846215;29;19929;-80
2022/06/04 04:33:19;;;;;;;;;;;12.20;99.90;;;;;;4862386;29;19936;-81
2022/06/04 04:35:46;;;;;;;;;;;12.30;99.90;;;;;;4861869;29;19928;-80
2022/06/04 04:38:11;;;;;;;;;;;12.30;99.90;;;;;;4846228;29;19939;-82
2022/06/04 04:40:40;;;;;;;;;;;12.40;99.90;;;;;;4860978;29;19928;-81
2022/06/04 04:43:06;;;;;;;;;;;12.40;99.90;;;;;;4861548;29;20430;-81
2022/06/04 04:45:31;;;;;;;;;;;12.50;99.90;;;;;;4861473;29;19928;-82
2022/06/04 04:47:57;;;;;;;;;;;12.50;99.90;;;;;;4861429;29;19928;-82
2022/06/04 04:50:24;;;;;;;;;;;12.60;99.90;;;;;;4845874;29;19966;-82
2022/06/04 04:52:50;;;;;;;;;;;12.60;99.90;;;;;;4846053;29;19972;-82
2022/06/04 04:55:15;;;;;;;;;;;12.70;99.90;;;;;;4845881;29;19924;-81
2022/06/04 04:57:41;;;;;;;;;;;12.70;99.90;;;;;;4862266;29;19984;-82
2022/06/04 05:00:07;;;;;;;;;;;12.70;99.90;;;;;;4845382;29;19981;-82
2022/06/04 05:02:33;;;;;;;;;;;12.80;99.90;;;;;;4861131;29;20012;-81
2022/06/04 05:04:59;;;;;;;;;;;12.80;99.90;;;;;;4861531;29;19928;-81
2022/06/04 05:07:24;;;;;;;;;;;12.80;99.90;;;;;;4846420;29;19939;-81
2022/06/04 05:09:50;;;;;;;;;;;12.80;99.90;;;;;;4862023;29;19990;-82
2022/06/04 05:12:15;;;;;;;;;;;12.90;99.90;;;;;;4860820;29;19934;-81
2022/06/04 05:14:41;;;;;;;;;;;12.90;99.90;;;;;;4861929;29;20351;-81
2022/06/04 05:17:07;;;;;;;;;;;13.00;99.90;;;;;;4845471;29;20001;-81
2022/06/04 05:19:32;;;;;;;;;;;13.10;99.90;;;;;;4845014;29;19933;-81
2022/06/04 05:21:58;;;;;;;;;;;13.20;99.90;;;;;;4860497;29;19928;-81
2022/06/04 05:24:29;;;;;;;;;;;13.30;99.90;;;;;;4862515;29;19932;-81
2022/06/04 05:26:55;;;;;;;;;;;13.30;99.90;;;;;;4845308;29;19935;-81
2022/06/04 05:29:22;;;;;;;;;;;13.40;99.90;;;;;;4860691;29;19938;-82
2022/06/04 05:31:48;;;;;;;;;;;13.50;99.90;;;;;;4861202;29;20019;-82
2022/06/04 05:34:15;;;;;;;;;;;13.60;99.90;;;;;;4860688;29;19932;-82
2022/06/04 05:36:42;;;;;;;;;;;13.60;99.90;;;;;;4860769;29;19928;-82
2022/06/04 05:39:09;;;;;;;;;;;13.70;99.90;;;;;;4860766;29;19934;-82
2022/06/04 05:41:34;;;;;;;;;;;13.60;99.90;;;;;;4860356;29;20377;-82
2022/06/04 05:44:00;;;;;;;;;;;13.60;99.90;;;;;;4845082;29;19928;-81
2022/06/04 05:46:26;;;;;;;;;;;13.70;99.90;;;;;;4862026;29;19928;-82
2022/06/04 05:48:52;;;;;;;;;;;13.70;99.90;;;;;;4860461;29;19979;-82
2022/06/04 05:51:22;;;;;;;;;;;13.80;99.90;;;;;;4860452;29;19951;-82
2022/06/04 05:53:48;;;;;;;;;;;13.70;99.90;;;;;;4861201;29;20015;-82
2022/06/04 05:56:15;;;;;;;;;;;13.70;99.90;;;;;;4859862;29;20420;-82
2022/06/04 05:58:41;;;;;;;;;;;13.70;99.90;;;;;;4860412;29;19935;-82
2022/06/04 06:01:07;;;;;;;;;;;13.70;99.90;;;;;;4860307;29;19928;-83
2022/06/04 06:03:33;;;;;;;;;;;13.70;99.90;;;;;;4859979;29;19932;-84
2022/06/04 06:05:58;;;;;;;;;;;13.80;99.90;;;;;;4860977;29;19928;-82
2022/06/04 06:08:24;;;;;;;;;;;13.80;99.90;;;;;;4844891;29;19928;-82
2022/06/04 06:10:49;;;;;;;;;;;13.90;99.90;;;;;;4844642;29;19984;-83
2022/06/04 06:13:15;;;;;;;;;;;13.90;99.90;;;;;;4862615;29;19939;-81
2022/06/04 06:15:41;;;;;;;;;;;13.90;99.90;;;;;;4865741;29;20007;-80
2022/06/04 06:18:06;;;;;;;;;;;13.90;99.90;;;;;;4864003;29;20010;-81
2022/06/04 06:20:33;;;;;;;;;;;14.00;99.90;;;;;;4863973;29;20088;-80
2022/06/04 06:22:58;;;;;;;;;;;14.00;99.90;;;;;;4865598;29;20039;-80
2022/06/04 06:25:24;;;;;;;;;;;14.00;99.90;;;;;;4864123;29;20408;-79
2022/06/04 06:27:50;;;;;;;;;;;14.00;99.90;;;;;;4864019;29;19936;-80
2022/06/04 06:30:15;;;;;;;;;;;14.10;99.90;;;;;;4863836;29;19947;-79
2022/06/04 06:32:41;;;;;;;;;;;14.10;99.90;;;;;;4864049;29;19928;-80
2022/06/04 06:35:08;;;;;;;;;;;14.10;99.90;;;;;;4864756;29;19928;-80
2022/06/04 06:37:34;;;;;;;;;;;14.20;99.90;;;;;;4864390;29;20066;-81
2022/06/04 06:40:00;;;;;;;;;;;14.20;99.90;;;;;;4864023;29;19924;-82
2022/06/04 06:42:25;;;;;;;;;;;14.40;99.90;;;;;;4863758;29;19928;-84
2022/06/04 06:44:52;;;;;;;;;;;14.40;99.90;;;;;;4848123;29;19975;-83
2022/06/04 06:47:18;;;;;;;;;;;14.50;99.90;;;;;;4863630;29;20337;-82
2022/06/04 06:49:44;;;;;;;;;;;14.50;99.90;;;;;;4863491;29;20015;-83
2022/06/04 06:52:10;;;;;;;;;;;14.60;99.90;;;;;;4863430;29;19936;-83
2022/06/04 06:54:36;;;;;;;;;;;14.70;99.90;;;;;;4863039;29;20019;-83
2022/06/04 06:57:04;;;;;;;;;;;14.70;99.90;;;;;;4863460;29;19928;-83
2022/06/04 06:59:29;;;;;;;;;;;14.70;99.90;;;;;;4863311;29;19924;-83
2022/06/04 07:01:56;;;;;;;;;;;14.70;99.90;;;;;;4863297;29;19984;-83
2022/06/04 07:04:22;;;;;;;;;;;14.80;99.90;;;;;;4863002;29;19979;-83
2022/06/04 07:06:49;;;;;;;;;;;14.80;99.90;;;;;;4848109;29;20042;-82
2022/06/04 07:09:16;;;;;;;;;;;14.90;99.90;;;;;;4863847;29;19983;-83
2022/06/04 07:11:42;;;;;;;;;;;15.00;99.90;;;;;;4863095;29;19943;-83
2022/06/04 07:14:08;;;;;;;;;;;14.90;99.90;;;;;;4863243;29;19932;-82
2022/06/04 07:16:34;;;;;;;;;;;14.90;99.90;;;;;;4863013;29;19935;-83
2022/06/04 07:19:00;;;;;;;;;;;14.90;99.90;;;;;;4847891;29;19928;-83
2022/06/04 07:21:26;;;;;;;;;;;14.90;99.90;;;;;;4862654;29;19986;-84
2022/06/04 07:23:53;;;;;;;;;;;14.80;99.90;;;;;;4862854;29;19972;-84
2022/06/04 07:26:19;;;;;;;;;;;14.80;99.90;;;;;;4847485;29;19928;-84
2022/06/04 07:28:45;;;;;;;;;;;14.90;99.90;;;;;;4862909;29;20023;-83
2022/06/04 07:31:12;;;;;;;;;;;14.90;99.90;;;;;;4847336;29;19975;-83
2022/06/04 07:33:38;;;;;;;;;;;15.00;99.90;;;;;;4863010;29;19932;-83
2022/06/04 07:36:04;;;;;;;;;;;15.10;99.90;;;;;;4847625;29;19958;-83
2022/06/04 07:38:30;;;;;;;;;;;15.10;99.90;;;;;;4862733;29;19927;-83
2022/06/04 07:40:55;;;;;;;;;;;15.20;99.90;;;;;;4847540;29;19928;-83
2022/06/04 07:43:21;;;;;;;;;;;15.20;99.90;;;;;;4863455;29;19928;-86
2022/06/04 07:45:46;;;;;;;;;;;15.20;99.90;;;;;;4862646;29;20358;-81
2022/06/04 07:48:12;;;;;;;;;;;15.30;99.90;;;;;;4863197;29;20393;-80
2022/06/04 07:50:38;;;;;;;;;;;15.40;99.90;;;;;;4862190;29;19931;-82
2022/06/04 07:53:04;;;;;;;;;;;15.40;99.90;;;;;;4846977;29;19928;-82
2022/06/04 07:55:29;;;;;;;;;;;15.50;99.90;;;;;;4863223;29;19929;-81
2022/06/04 07:57:56;;;;;;;;;;;15.50;99.90;;;;;;4847257;29;19936;-86
2022/06/04 08:00:23;;;;;;;;;;;15.60;99.90;;;;;;4862025;29;19928;-87
2022/06/04 08:02:50;;;;;;;;;;;15.60;99.90;;;;;;4862377;29;20022;-86
2022/06/04 08:05:16;;;;;;;;;;;15.80;99.90;;;;;;4846526;29;19935;-84
2022/06/04 08:07:41;;;;;;;;;;;15.90;99.90;;;;;;4862253;29;19928;-86
2022/06/04 08:10:08;;;;;;;;;;;16.00;99.90;;;;;;4846826;29;19928;-86
2022/06/04 08:12:34;;;;;;;;;;;16.00;99.90;;;;;;4861841;29;20034;-86
2022/06/04 08:15:01;;;;;;;;;;;16.00;99.90;;;;;;4862271;29;19931;-86
2022/06/04 08:17:26;;;;;;;;;;;16.00;99.90;;;;;;4862124;29;19924;-84
2022/06/04 08:19:52;;;;;;;;;;;16.10;99.90;;;;;;4861885;29;20000;-84
2022/06/04 08:22:18;;;;;;;;;;;16.00;99.90;;;;;;4846614;29;19928;-85
2022/06/04 08:24:47;;;;;;;;;;;15.90;99.90;;;;;;4861967;29;20357;-83
2022/06/04 08:27:13;;;;;;;;;;;15.90;99.90;;;;;;4861655;29;19983;-83
2022/06/04 08:29:38;;;;;;;;;;;15.80;99.90;;;;;;4861706;29;19982;-81
2022/06/04 08:32:05;;;;;;;;;;;15.70;99.90;;;;;;4861218;29;19927;-82
2022/06/04 08:34:31;;;;;;;;;;;15.70;99.90;;;;;;4860682;29;19928;-82
2022/06/04 08:36:57;;;;;;;;;;;15.80;99.90;;;;;;4861085;29;19928;-82
2022/06/04 08:39:23;;;;;;;;;;;15.90;99.90;;;;;;4846769;29;20031;-82
2022/06/04 08:41:54;;;;;;;;;;;15.90;99.90;;;;;;4861940;29;20038;-82
2022/06/04 08:44:22;;;;;;;;;;;16.10;99.90;;;;;;4861920;29;19976;-82
2022/06/04 08:46:54;;;;;;;;;;;16.30;99.90;;;;;;4862240;29;19936;-81
2022/06/04 08:49:29;;;;;;;;;;;16.30;99.90;;;;;;4861882;29;20361;-81
2022/06/04 08:51:56;;;;;;;;;;;16.40;99.90;;;;;;4861030;29;20405;-82
2022/06/04 09:00:04;;;;;;;;;;;16.30;99.90;;;;;;4861241;29;19932;-82
2022/06/04 09:02:50;;;;;;;;;;;16.20;99.90;;;;;;4860994;29;19928;-82
2022/06/04 09:05:23;;;;;;;;;;;16.20;99.90;;;;;;4832073;29;20011;-81
2022/06/04 09:07:50;;;;;;;;;;;16.20;99.90;;;;;;4860938;29;19974;-81
2022/06/04 09:10:18;;;;;;;;;;;16.30;99.90;;;;;;4845849;29;19999;-81
2022/06/04 09:12:46;;;;;;;;;;;16.30;99.90;;;;;;4861761;29;19935;-81
2022/06/04 09:15:15;;;;;;;;;;;16.40;99.90;;;;;;4860591;29;19971;-81
2022/06/04 09:17:43;;;;;;;;;;;16.30;99.90;;;;;;4860768;29;19984;-81
2022/06/04 09:20:17;;;;;;;;;;;16.40;99.90;;;;;;4861540;29;19928;-81
2022/06/04 09:22:43;;;;;;;;;;;16.50;99.90;;;;;;4860624;29;20319;-81
2022/06/04 09:25:12;;;;;;;;;;;16.40;99.90;;;;;;4860177;29;20288;-82
2022/06/04 09:27:38;;;;;;;;;;;16.40;99.90;;;;;;4861203;29;19928;-81
2022/06/04 09:30:20;;;;;;;;;;;16.50;99.90;;;;;;4860856;29;20376;-81
2022/06/04 09:32:54;;;;;;;;;;;16.70;99.90;;;;;;4860632;29;19928;-81
2022/06/04 09:35:25;;;;;;;;;;;16.70;99.90;;;;;;4845760;29;19928;-82
2022/06/04 09:37:51;;;;;;;;;;;16.70;99.90;;;;;;4861026;29;20358;-83
2022/06/04 09:40:21;;;;;;;;;;;16.80;99.90;;;;;;4844682;29;19928;-83
2022/06/04 09:42:47;;;;;;;;;;;16.90;99.90;;;;;;4861728;29;19928;-83
2022/06/04 09:45:18;;;;;;;;;;;16.90;99.90;;;;;;4860906;29;19996;-83
2022/06/04 09:47:44;;;;;;;;;;;16.90;99.90;;;;;;4859964;29;19935;-82
2022/06/04 09:50:18;;;;;;;;;;;16.90;99.90;;;;;;4844860;29;19982;-82
2022/06/04 09:52:45;;;;;;;;;;;16.90;99.90;;;;;;4860108;29;19966;-82
2022/06/04 09:55:19;;;;;;;;;;;16.90;99.90;;;;;;4861193;29;20042;-83
2022/06/04 09:58:00;;;;;;;;;;;17.10;99.90;;;;;;4861504;29;19928;-82
2022/06/04 10:00:28;;;;;;;;;;;17.30;99.90;;;;;;4860516;29;19928;-85
2022/06/04 10:03:11;;;;;;;;;;;17.20;99.90;;;;;;4844912;29;19933;-82
2022/06/04 10:05:36;;;;;;;;;;;17.10;99.90;;;;;;4860122;29;19932;-84
2022/06/04 10:08:12;;;;;;;;;;;17.30;99.90;;;;;;4860053;29;19983;-82
2022/06/04 10:10:40;;;;;;;;;;;17.50;99.90;;;;;;4859964;29;20364;-81
2022/06/04 10:16:15;;;;;;;;;;;17.60;99.90;;;;;;4860062;29;19987;-82
2022/06/04 10:18:51;;;;;;;;;;;17.70;99.90;;;;;;4845111;29;20456;-80
2022/06/04 10:21:18;;;;;;;;;;;17.70;99.90;;;;;;4860068;29;20028;-80
2022/06/04 10:23:45;;;;;;;;;;;17.80;99.90;;;;;;4860110;29;19928;-79
2022/06/04 10:26:14;;;;;;;;;;;17.70;99.90;;;;;;4859796;29;19932;-79
2022/06/04 10:28:46;;;;;;;;;;;17.60;99.90;;;;;;4859839;29;19935;-80
2022/06/04 10:31:17;;;;;;;;;;;17.70;99.90;;;;;;4844474;29;19932;-78
2022/06/04 10:33:49;;;;;;;;;;;17.90;99.90;;;;;;4859947;29;19932;-81
2022/06/04 10:36:33;;;;;;;;;;;17.90;99.90;;;;;;4859793;29;20018;-81
2022/06/04 10:39:08;;;;;;;;;;;18.00;99.90;;;;;;4859964;29;20018;-80
2022/06/04 10:41:40;;;;;;;;;;;18.20;99.90;;;;;;4860449;29;19928;-82
2022/06/04 10:44:15;;;;;;;;;;;18.30;99.90;;;;;;4860436;29;20324;-80
2022/06/04 10:46:41;;;;;;;;;;;18.30;99.90;;;;;;4860664;29;19932;-78
2022/06/04 10:49:09;;;;;;;;;;;18.20;99.90;;;;;;4859524;29;19928;-79
2022/06/04 10:51:41;;;;;;;;;;;18.20;99.90;;;;;;4859541;29;20396;-78
2022/06/04 10:54:16;;;;;;;;;;;18.20;99.90;;;;;;4859938;29;19991;-78
2022/06/04 10:56:55;;;;;;;;;;;18.30;99.90;;;;;;4859610;29;19935;-80
2022/06/04 10:59:24;;;;;;;;;;;18.50;99.90;;;;;;4862963;29;19971;-79
2022/06/04 11:01:56;;;;;;;;;;;18.70;99.90;;;;;;4862903;29;19928;-81
2022/06/04 11:04:34;;;;;;;;;;;18.80;99.90;;;;;;4862717;29;20281;-81
2022/06/04 11:07:07;;;;;;;;;;;18.70;99.90;;;;;;4863107;29;19980;-80
2022/06/04 11:09:35;;;;;;;;;;;18.70;99.90;;;;;;4864160;29;20008;-79
2022/06/04 11:12:03;;;;;;;;;;;18.90;99.90;;;;;;4862604;29;19924;-79
2022/06/04 11:14:37;;;;;;;;;;;19.10;99.90;;;;;;4862787;29;19928;-79
2022/06/04 11:17:11;;;;;;;;;;;19.20;99.90;;;;;;4847718;29;19928;-79
2022/06/04 11:19:44;;;;;;;;;;;19.30;99.90;;;;;;4863003;29;19928;-78
2022/06/04 11:22:12;;;;;;;;;;;19.40;99.90;;;;;;4863791;29;19928;-79
2022/06/04 11:24:44;;;;;;;;;;;19.70;99.90;;;;;;4863672;29;19935;-79
2022/06/04 11:27:22;;;;;;;;;;;19.70;99.90;;;;;;4847507;29;20258;-78
2022/06/04 11:29:50;;;;;;;;;;;20.20;99.90;;;;;;4862545;29;20323;-79
2022/06/04 11:32:21;;;;;;;;;;;20.50;99.90;;;;;;4863456;29;20035;-78
2022/06/04 11:34:50;;;;;;;;;;;20.50;99.90;;;;;;4863369;29;19935;-78
2022/06/04 11:37:23;;;;;;;;;;;20.30;99.90;;;;;;4862553;29;19928;-79
2022/06/04 11:39:48;;;;;;;;;;;20.30;99.90;;;;;;4863024;29;19934;-78
2022/06/04 11:42:23;;;;;;;;;;;20.10;99.90;;;;;;4862543;29;20011;-80
2022/06/04 11:45:01;;;;;;;;;;;20.00;99.90;;;;;;4846863;29;20288;-80
2022/06/04 11:47:39;;;;;;;;;;;20.40;99.90;;;;;;4863231;29;19928;-80
2022/06/04 11:50:10;;;;;;;;;;;20.60;99.90;;;;;;4846776;29;19956;-80
2022/06/04 11:52:50;;;;;;;;;;;20.80;99.90;;;;;;4862581;29;20462;-79
2022/06/04 11:55:18;;;;;;;;;;;20.80;99.90;;;;;;4862513;29;19993;-81
2022/06/04 11:57:47;;;;;;;;;;;20.80;99.90;;;;;;4862779;29;20306;-80
2022/06/04 12:00:22;;;;;;;;;;;21.30;99.90;;;;;;4861645;29;19943;-81
2022/06/04 12:02:57;;;;;;;;;;;21.60;99.90;;;;;;4862384;29;19951;-79
2022/06/04 12:05:27;;;;;;;;;;;21.40;99.90;;;;;;4861950;29;19932;-80
2022/06/04 12:07:54;;;;;;;;;;;21.80;99.90;;;;;;4862356;29;20039;-81
2022/06/04 12:10:38;;;;;;;;;;;21.70;99.90;;;;;;4860357;29;19934;-79
2022/06/04 12:13:06;;;;;;;;;;;22.20;99.90;;;;;;4862322;29;19928;-80
2022/06/04 12:15:37;;;;;;;;;;;22.30;99.90;;;;;;4862709;29;19928;-80
2022/06/04 12:18:14;;;;;;;;;;;22.50;99.50;;;;;;4861703;29;20026;-82
2022/06/04 12:26:19;;;;;;;;;;;23.20;97.50;;;;;;4861964;29;20325;-82
2022/06/04 12:28:44;;;;;;;;;;;23.10;96.20;;;;;;4861827;29;19928;-80
2022/06/04 12:31:10;;;;;;;;;;;23.30;97.10;;;;;;4862008;29;19935;-81
2022/06/04 12:33:38;;;;;;;;;;;23.20;96.20;;;;;;4862542;29;19936;-80
2022/06/04 12:36:11;;;;;;;;;;;23.40;96.00;;;;;;4862306;29;20004;-80
2022/06/04 12:38:38;;;;;;;;;;;23.50;95.80;;;;;;4861456;29;19936;-79
2022/06/04 12:41:06;;;;;;;;;;;23.70;95.40;;;;;;4861188;29;19928;-79
2022/06/04 12:43:33;;;;;;;;;;;23.80;95.20;;;;;;4862360;29;19935;-80
2022/06/04 12:46:10;;;;;;;;;;;23.60;93.70;;;;;;4861179;29;19971;-82
2022/06/04 12:48:45;;;;;;;;;;;23.60;94.30;;;;;;4862197;29;19984;-82
2022/06/04 12:51:10;;;;;;;;;;;23.70;94.90;;;;;;4861910;29;20018;-83
2022/06/04 12:53:45;;;;;;;;;;;23.70;93.40;;;;;;4861787;29;19986;-79
2022/06/04 12:56:28;;;;;;;;;;;23.60;93.20;;;;;;4861880;29;19951;-80
2022/06/04 12:58:56;;;;;;;;;;;23.70;94.00;;;;;;4862319;29;19932;-79
2022/06/04 13:01:23;;;;;;;;;;;23.80;94.30;;;;;;4860899;29;20262;-79
2022/06/04 13:03:49;;;;;;;;;;;23.80;93.30;;;;;;4845342;29;19928;-81
2022/06/04 13:06:14;;;;;;;;;;;23.80;93.40;;;;;;4860875;29;19934;-78
2022/06/04 13:08:40;;;;;;;;;;;24.20;94.10;;;;;;4845390;29;19936;-79
2022/06/04 13:11:21;;;;;;;;;;;24.20;90.90;;;;;;4861259;29;19928;-80
2022/06/04 13:13:53;;;;;;;;;;;24.20;90.30;;;;;;4845580;29;19935;-81
2022/06/04 13:16:20;;;;;;;;;;;24.00;90.50;;;;;;4860632;29;20311;-80
2022/06/04 13:19:01;;;;;;;;;;;24.10;91.00;;;;;;4860198;29;19928;-77
2022/06/04 13:21:28;;;;;;;;;;;24.20;91.50;;;;;;4861696;29;19928;-78
2022/06/04 13:23:59;;;;;;;;;;;24.30;92.30;;;;;;4861981;29;19939;-79
2022/06/04 13:26:25;;;;;;;;;;;24.10;91.50;;;;;;4861787;29;20068;-79
2022/06/04 13:28:51;;;;;;;;;;;24.30;91.50;;;;;;4861648;29;19996;-79
2022/06/04 13:31:25;;;;;;;;;;;24.40;91.10;;;;;;4860762;29;19935;-80
2022/06/04 13:33:51;;;;;;;;;;;24.60;91.90;;;;;;4860886;29;20402;-80
2022/06/04 13:36:24;;;;;;;;;;;24.70;89.60;;;;;;4845429;29;20290;-79
2022/06/04 13:38:53;;;;;;;;;;;25.10;88.90;;;;;;4844792;29;19974;-76
2022/06/04 13:42:00;;;;;;;;;;;25.40;88.00;;;;;;4861347;29;19928;-79
2022/06/04 13:44:07;;;;;;;;;;;25.40;82.70;;;;;;4861399;29;19928;-77
2022/06/04 13:46:33;;;;;;;;;;;25.60;85.50;;;;;;4859966;29;19932;-76
2022/06/04 13:49:08;;;;;;;;;;;25.70;82.80;;;;;;4860274;29;19934;-76
2022/06/04 13:51:38;;;;;;;;;;;25.90;80.60;;;;;;4859775;29;19939;-78
2022/06/04 13:54:04;;;;;;;;;;;25.80;80.80;;;;;;4860496;29;19932;-81
2022/06/04 13:56:38;;;;;;;;;;;25.60;80.60;;;;;;4860016;29;20452;-80
2022/06/04 13:59:04;;;;;;;;;;;25.40;81.60;;;;;;4860210;29;19928;-80
2022/06/04 14:01:37;;;;;;;;;;;25.50;80.50;;;;;;4860951;29;20022;-81
2022/06/04 14:06:52;;;;;;;;;;;25.90;79.10;;;;;;4859778;29;19989;-79
2022/06/04 14:09:22;;;;;;;;;;;26.10;77.30;;;;;;4844661;29;20012;-79
2022/06/04 14:12:07;;;;;;;;;;;26.60;75.40;;;;;;4860024;29;19936;-79
2022/06/04 14:14:46;;;;;;;;;;;27.00;75.00;;;;;;4859564;29;19929;-79
2022/06/04 14:17:29;;;;;;;;;;;27.40;71.80;;;;;;4859756;29;19976;-82
2022/06/04 14:19:55;;;;;;;;;;;27.40;68.70;;;;;;4844887;29;19928;-82
2022/06/04 14:22:50;;;;;;;;;;;27.70;68.90;;;;;;4844482;29;20035;-82
2022/06/04 14:25:22;;;;;;;;;;;27.90;68.40;;;;;;4852159;29;19981;-82
2022/06/04 14:27:53;;;;;;;;;;;28.10;65.80;;;;;;4860742;29;19940;-81
2022/06/04 14:30:25;;;;;;;;;;;27.80;62.20;;;;;;4860036;29;19928;-82
2022/06/04 14:32:52;;;;;;;;;;;28.10;62.00;;;;;;4859070;29;19957;-81
2022/06/04 14:35:18;;;;;;;;;;;28.00;63.30;;;;;;4863858;29;19932;-84
2022/06/04 14:37:50;;;;;;;;;;;28.20;61.00;;;;;;4863556;29;20327;-82
2022/06/04 14:40:18;;;;;;;;;;;28.00;61.60;;;;;;4863220;29;20019;-79
2022/06/04 14:43:23;;;;;;;;;;;27.80;61.40;;;;;;4863640;29;19928;-84
2022/06/04 14:45:48;;;;;;;;;;;28.00;62.50;;;;;;4810199;29;19969;-78
2022/06/04 14:48:23;;;;;;;;;;;27.90;60.70;;;;;;4810399;29;19944;-81
2022/06/04 14:50:51;;;;;;;;;;;28.00;60.80;;;;;;4830464;29;19974;-81
2022/06/04 14:53:17;;;;;;;;;;;27.80;59.80;;;;;;4863323;29;19928;-79